Time;durP1;ratioP1;P1;durP2;ratioP2;P2;SDS_P1;SDS_P2;PMS_P1;PMS_P2;Temp;Humidity;BMP_temperature;BMP_pressure;BME280_temperature;BME280_humidity;BME280_pressure;Samples;Min_cycle;Max_cycle;Signal;HPM_P1;HPM_P2
2024/03/19 00:02:01;;;;;;;25.10;14.87;;;11.20;99.90;;;;;;5029405;28;20188;-65
2024/03/19 00:04:26;;;;;;;28.63;16.93;;;11.20;99.90;;;;;;5028891;28;20182;-65
2024/03/19 00:06:52;;;;;;;25.60;16.13;;;11.20;99.90;;;;;;5030659;28;20189;-64
2024/03/19 00:09:18;;;;;;;19.37;13.50;;;11.20;99.90;;;;;;5030356;28;20216;-65
2024/03/19 00:11:44;;;;;;;26.50;15.90;;;11.20;99.90;;;;;;5031096;28;20221;-65
2024/03/19 00:14:10;;;;;;;19.77;14.00;;;11.20;99.90;;;;;;5031656;28;20437;-64
2024/03/19 00:16:35;;;;;;;25.53;15.40;;;11.20;99.90;;;;;;5030971;28;20188;-66
2024/03/19 00:19:02;;;;;;;27.13;16.30;;;11.20;99.90;;;;;;5031148;28;20210;-64
2024/03/19 00:21:28;;;;;;;26.37;16.20;;;11.20;99.90;;;;;;5029426;28;20801;-65
2024/03/19 00:23:53;;;;;;;27.03;16.03;;;11.10;99.90;;;;;;5031957;28;20463;-65
2024/03/19 00:26:19;;;;;;;24.77;15.03;;;11.10;99.90;;;;;;5031418;28;20532;-65
2024/03/19 00:28:45;;;;;;;23.60;14.90;;;11.10;99.90;;;;;;5030725;28;20720;-65
2024/03/19 00:31:10;;;;;;;21.83;15.30;;;11.10;99.90;;;;;;5031447;28;20222;-66
2024/03/19 00:33:36;;;;;;;25.50;16.50;;;11.00;99.90;;;;;;5031940;28;20181;-65
2024/03/19 00:36:11;;;;;;;24.53;15.37;;;11.00;99.90;;;;;;5030486;28;20192;-64
2024/03/19 00:38:36;;;;;;;25.43;15.67;;;11.00;99.90;;;;;;5027920;28;20451;-65
2024/03/19 00:41:02;;;;;;;21.20;15.80;;;11.00;99.90;;;;;;5030556;28;20830;-64
2024/03/19 00:43:28;;;;;;;24.07;14.80;;;11.00;99.90;;;;;;5030411;28;20189;-65
2024/03/19 00:45:54;;;;;;;23.20;15.70;;;11.00;99.90;;;;;;5031239;28;20225;-64
2024/03/19 00:48:20;;;;;;;22.70;15.63;;;11.00;99.90;;;;;;5033468;28;20289;-66
2024/03/19 00:50:46;;;;;;;24.93;14.93;;;11.00;99.90;;;;;;5034389;28;20471;-66
2024/03/19 00:53:11;;;;;;;22.57;15.53;;;11.00;99.90;;;;;;5035585;28;21143;-64
2024/03/19 00:55:38;;;;;;;22.83;14.70;;;11.00;99.90;;;;;;5034893;28;20210;-65
2024/03/19 00:58:04;;;;;;;21.50;14.87;;;11.00;99.90;;;;;;5033905;28;20732;-65
2024/03/19 01:00:29;;;;;;;21.87;14.80;;;11.10;99.90;;;;;;5034558;28;20520;-65
2024/03/19 01:02:55;;;;;;;18.80;14.07;;;11.00;99.90;;;;;;5034546;28;20420;-65
2024/03/19 01:05:21;;;;;;;23.37;14.33;;;11.10;99.90;;;;;;5034811;28;20645;-64
2024/03/19 01:07:46;;;;;;;20.70;13.40;;;11.10;99.90;;;;;;5034288;28;20221;-65
2024/03/19 01:10:13;;;;;;;19.70;14.20;;;11.10;99.90;;;;;;5034040;28;20186;-65
2024/03/19 01:12:39;;;;;;;18.70;13.40;;;11.20;99.90;;;;;;5034980;28;20625;-66
2024/03/19 01:15:06;;;;;;;20.53;12.77;;;11.20;99.90;;;;;;5034429;28;20431;-65
2024/03/19 01:17:35;;;;;;;22.07;13.80;;;11.20;99.90;;;;;;5033491;28;20431;-65
2024/03/19 01:20:09;;;;;;;21.50;13.23;;;11.20;99.90;;;;;;5033612;28;20440;-66
2024/03/19 01:22:36;;;;;;;16.50;12.50;;;11.20;99.90;;;;;;5032976;28;20493;-65
2024/03/19 01:25:04;;;;;;;20.97;13.47;;;11.20;99.90;;;;;;5032638;28;20432;-66
2024/03/19 01:27:29;;;;;;;17.07;13.33;;;11.20;99.90;;;;;;5033892;28;20441;-67
2024/03/19 01:29:55;;;;;;;18.77;13.20;;;11.20;99.90;;;;;;5034293;28;20432;-65
2024/03/19 01:32:20;;;;;;;26.20;12.57;;;11.20;99.90;;;;;;5033760;28;20210;-66
2024/03/19 01:34:46;;;;;;;16.53;12.40;;;11.20;99.90;;;;;;5034596;28;20190;-66
2024/03/19 01:37:12;;;;;;;18.07;12.30;;;11.20;99.90;;;;;;5033532;28;20243;-65
2024/03/19 01:39:37;;;;;;;17.87;12.73;;;11.20;99.90;;;;;;5032453;28;20589;-65
2024/03/19 01:42:04;;;;;;;23.70;12.87;;;11.20;99.90;;;;;;5032592;28;20177;-66
2024/03/19 01:44:30;;;;;;;21.40;13.30;;;11.20;99.90;;;;;;5032495;28;20612;-66
2024/03/19 01:46:56;;;;;;;19.23;13.20;;;11.20;99.90;;;;;;5033341;28;20447;-66
2024/03/19 01:49:24;;;;;;;19.63;13.30;;;11.20;99.90;;;;;;5033615;28;20428;-66
2024/03/19 01:51:52;;;;;;;20.40;12.40;;;11.20;99.90;;;;;;5033014;28;20222;-67
2024/03/19 01:54:18;;;;;;;22.40;13.47;;;11.20;99.90;;;;;;5032779;28;20429;-65
2024/03/19 01:56:44;;;;;;;19.20;12.60;;;11.10;99.90;;;;;;5034662;28;20421;-66
2024/03/19 01:59:09;;;;;;;19.07;12.47;;;11.10;99.90;;;;;;5032001;28;20195;-66
2024/03/19 02:01:35;;;;;;;19.10;12.87;;;11.00;99.90;;;;;;5033530;28;20425;-67
2024/03/19 02:04:01;;;;;;;20.97;12.80;;;10.90;99.90;;;;;;5028596;28;20256;-65
2024/03/19 02:06:27;;;;;;;18.50;12.73;;;10.90;99.90;;;;;;5031448;28;20923;-65
2024/03/19 02:09:05;;;;;;;19.63;12.70;;;10.80;99.90;;;;;;5032063;28;20432;-66
2024/03/19 02:11:34;;;;;;;19.80;12.67;;;10.80;99.90;;;;;;5032991;28;20225;-66
2024/03/19 02:14:01;;;;;;;16.53;11.47;;;10.80;99.90;;;;;;5032514;28;20441;-66
2024/03/19 02:16:27;;;;;;;22.43;13.83;;;10.80;99.90;;;;;;5033834;28;20429;-65
2024/03/19 02:18:57;;;;;;;20.20;12.60;;;10.70;99.90;;;;;;5033983;28;20435;-66
2024/03/19 02:21:23;;;;;;;22.70;13.23;;;10.70;99.90;;;;;;5033046;28;21433;-65
2024/03/19 02:23:49;;;;;;;19.23;12.30;;;10.70;99.90;;;;;;5033480;28;20531;-67
2024/03/19 02:26:14;;;;;;;17.80;11.73;;;10.80;99.90;;;;;;5032253;28;20435;-67
2024/03/19 02:28:40;;;;;;;21.17;12.57;;;10.80;99.90;;;;;;5033994;28;21197;-66
2024/03/19 02:31:06;;;;;;;18.63;13.40;;;10.80;99.90;;;;;;5031804;28;20218;-67
2024/03/19 02:33:31;;;;;;;19.93;13.20;;;10.80;99.90;;;;;;5033576;28;20186;-67
2024/03/19 02:35:57;;;;;;;20.80;12.70;;;10.80;99.90;;;;;;5032044;28;20660;-66
2024/03/19 02:38:24;;;;;;;19.80;13.20;;;10.80;99.90;;;;;;5030822;28;20190;-66
2024/03/19 02:40:50;;;;;;;17.30;12.27;;;10.80;99.90;;;;;;5033129;28;20432;-66
2024/03/19 02:43:16;;;;;;;19.17;12.70;;;10.70;99.90;;;;;;5032613;28;20435;-66
2024/03/19 02:45:41;;;;;;;21.03;14.27;;;10.70;99.90;;;;;;5033184;28;20453;-66
2024/03/19 02:48:07;;;;;;;18.50;12.07;;;10.70;99.90;;;;;;5032249;28;20663;-65
2024/03/19 02:50:33;;;;;;;19.33;13.40;;;10.70;99.90;;;;;;5032440;28;20229;-66
2024/03/19 02:52:58;;;;;;;20.97;12.90;;;10.70;99.90;;;;;;5033024;28;20641;-66
2024/03/19 02:55:24;;;;;;;24.30;12.47;;;10.70;99.90;;;;;;5032752;28;20198;-67
2024/03/19 02:57:49;;;;;;;18.43;13.00;;;10.70;99.90;;;;;;5033460;28;20186;-66
2024/03/19 03:00:15;;;;;;;14.90;11.40;;;10.70;99.90;;;;;;5031442;28;20248;-66
2024/03/19 03:02:41;;;;;;;19.50;13.53;;;10.70;99.90;;;;;;5033615;28;20197;-67
2024/03/19 03:05:07;;;;;;;19.03;12.80;;;10.70;99.90;;;;;;5032205;28;20520;-67
2024/03/19 03:07:33;;;;;;;19.50;13.10;;;10.70;99.90;;;;;;5033125;28;20178;-67
2024/03/19 03:09:58;;;;;;;16.50;12.97;;;10.70;99.90;;;;;;5032283;28;20483;-66
2024/03/19 03:12:24;;;;;;;19.53;11.83;;;10.70;99.90;;;;;;5032144;28;20770;-66
2024/03/19 03:14:50;;;;;;;19.60;13.50;;;10.70;99.90;;;;;;5032272;28;20269;-66
2024/03/19 03:17:15;;;;;;;17.47;11.60;;;10.70;99.90;;;;;;5031456;28;20552;-65
2024/03/19 03:19:41;;;;;;;16.10;11.10;;;10.70;99.90;;;;;;5033065;28;20181;-66
2024/03/19 03:22:07;;;;;;;18.57;11.47;;;10.60;99.90;;;;;;5032116;28;20190;-66
2024/03/19 03:24:32;;;;;;;19.10;12.77;;;10.60;99.90;;;;;;5031115;28;20832;-66
2024/03/19 03:26:58;;;;;;;19.67;13.00;;;10.60;99.90;;;;;;5032522;28;20185;-66
2024/03/19 03:29:26;;;;;;;22.57;13.13;;;10.60;99.90;;;;;;5030451;28;20201;-66
2024/03/19 03:31:52;;;;;;;20.90;12.20;;;10.60;99.90;;;;;;5031466;28;20265;-66
2024/03/19 03:34:18;;;;;;;20.23;12.50;;;10.60;99.90;;;;;;5030854;28;20467;-66
2024/03/19 03:36:44;;;;;;;18.40;12.40;;;10.60;99.90;;;;;;5030993;28;20421;-67
2024/03/19 03:39:12;;;;;;;15.03;11.40;;;10.50;99.90;;;;;;5029867;28;20779;-66
2024/03/19 03:41:38;;;;;;;16.53;11.40;;;10.50;99.90;;;;;;5030812;28;20178;-66
2024/03/19 03:44:08;;;;;;;16.83;11.97;;;10.50;99.90;;;;;;5030651;28;20935;-66
2024/03/19 03:46:34;;;;;;;19.87;12.37;;;10.40;99.90;;;;;;5030831;28;20522;-66
2024/03/19 03:49:00;;;;;;;17.30;11.47;;;10.40;99.90;;;;;;5031003;28;20421;-66
2024/03/19 03:51:27;;;;;;;18.70;12.10;;;10.40;99.90;;;;;;5030295;28;20492;-66
2024/03/19 03:53:53;;;;;;;19.43;13.80;;;10.40;99.90;;;;;;5031790;28;20478;-66
2024/03/19 03:56:18;;;;;;;20.20;12.10;;;10.40;99.90;;;;;;5030688;28;20197;-67
2024/03/19 03:58:44;;;;;;;21.93;12.30;;;10.40;99.90;;;;;;5030546;28;21122;-65
2024/03/19 04:01:10;;;;;;;17.10;10.33;;;10.40;99.90;;;;;;5031003;28;20194;-65
2024/03/19 04:03:36;;;;;;;17.77;11.30;;;10.40;99.90;;;;;;5030972;28;20178;-66
2024/03/19 04:06:02;;;;;;;15.20;11.20;;;10.40;99.90;;;;;;5031050;28;20190;-66
2024/03/19 04:08:28;;;;;;;20.10;12.90;;;10.40;99.90;;;;;;5029872;28;21424;-66
2024/03/19 04:10:53;;;;;;;16.97;11.43;;;10.40;99.90;;;;;;5031447;28;21127;-66
2024/03/19 04:13:19;;;;;;;19.17;11.63;;;10.30;99.90;;;;;;5029578;28;20182;-67
2024/03/19 04:15:45;;;;;;;16.33;11.27;;;10.40;99.90;;;;;;5032115;28;20240;-65
2024/03/19 04:18:10;;;;;;;19.20;12.63;;;10.50;99.90;;;;;;5030955;28;20181;-66
2024/03/19 04:20:36;;;;;;;21.63;11.67;;;10.50;99.90;;;;;;5030444;28;20663;-66
2024/03/19 04:23:02;;;;;;;16.20;11.60;;;10.50;99.90;;;;;;5033221;28;20556;-65
2024/03/19 04:25:27;;;;;;;17.50;12.40;;;10.50;99.90;;;;;;5034306;28;20247;-65
2024/03/19 04:27:54;;;;;;;15.60;11.37;;;10.50;99.90;;;;;;5035166;28;20217;-65
2024/03/19 04:30:20;;;;;;;17.40;12.67;;;10.60;99.90;;;;;;5032945;28;20194;-66
2024/03/19 04:32:46;;;;;;;16.50;10.83;;;10.60;99.90;;;;;;5035090;28;20472;-65
2024/03/19 04:35:11;;;;;;;15.60;10.37;;;10.60;99.90;;;;;;5034887;28;20498;-66
2024/03/19 04:37:37;;;;;;;16.30;9.97;;;10.60;99.90;;;;;;5034006;28;21098;-66
2024/03/19 04:40:04;;;;;;;14.10;10.50;;;10.60;99.90;;;;;;5034516;28;20189;-65
2024/03/19 04:42:30;;;;;;;19.47;10.73;;;10.60;99.90;;;;;;5034745;28;20248;-65
2024/03/19 04:44:55;;;;;;;16.40;10.83;;;10.60;99.90;;;;;;5036379;28;20424;-66
2024/03/19 04:47:21;;;;;;;20.60;11.60;;;10.60;99.90;;;;;;5034393;28;20198;-66
2024/03/19 04:49:47;;;;;;;16.43;10.40;;;10.70;99.90;;;;;;5035938;28;20558;-66
2024/03/19 04:52:13;;;;;;;14.77;11.00;;;10.70;99.90;;;;;;5034876;28;20213;-66
2024/03/19 04:54:39;;;;;;;16.87;11.40;;;10.70;99.90;;;;;;5035258;28;20177;-66
2024/03/19 04:57:04;;;;;;;17.47;11.60;;;10.70;99.90;;;;;;5034391;28;20440;-66
2024/03/19 04:59:30;;;;;;;17.17;11.80;;;10.70;99.90;;;;;;5034414;28;20190;-65
2024/03/19 05:01:56;;;;;;;17.27;11.53;;;10.70;99.90;;;;;;5035240;28;20428;-66
2024/03/19 05:04:22;;;;;;;18.50;11.53;;;10.70;99.90;;;;;;5035218;28;20190;-66
2024/03/19 05:06:47;;;;;;;16.23;11.47;;;10.70;99.90;;;;;;5035678;28;20707;-66
2024/03/19 05:09:15;;;;;;;17.20;11.73;;;10.70;99.90;;;;;;5034626;28;20186;-66
2024/03/19 05:11:41;;;;;;;15.87;10.97;;;10.70;99.90;;;;;;5033566;28;20214;-66
2024/03/19 05:14:06;;;;;;;17.07;11.47;;;10.80;99.90;;;;;;5035185;28;20428;-66
2024/03/19 05:16:32;;;;;;;16.30;11.80;;;10.80;99.90;;;;;;5034059;28;20439;-65
2024/03/19 05:18:58;;;;;;;18.57;12.27;;;10.80;99.90;;;;;;5035416;28;20277;-65
2024/03/19 05:21:24;;;;;;;18.27;11.50;;;10.80;99.90;;;;;;5034146;28;20186;-66
2024/03/19 05:23:50;;;;;;;15.73;10.73;;;10.80;99.90;;;;;;5034531;28;20178;-65
2024/03/19 05:26:15;;;;;;;21.77;12.10;;;10.80;99.90;;;;;;5034241;28;20779;-65
2024/03/19 05:28:41;;;;;;;18.13;10.90;;;10.80;99.90;;;;;;5034643;28;20186;-66
2024/03/19 05:31:24;;;;;;;20.37;11.13;;;10.80;99.90;;;;;;5034997;28;20651;-66
2024/03/19 05:33:57;;;;;;;13.30;10.43;;;10.80;99.90;;;;;;5034170;28;20773;-66
2024/03/19 05:36:23;;;;;;;15.60;10.80;;;10.80;99.90;;;;;;5033734;28;20445;-66
2024/03/19 05:38:50;;;;;;;17.17;11.53;;;10.80;99.90;;;;;;5032545;28;20444;-66
2024/03/19 05:41:16;;;;;;;14.20;10.47;;;10.80;99.90;;;;;;5033953;28;20986;-66
2024/03/19 05:43:46;;;;;;;17.70;12.40;;;10.80;99.90;;;;;;5034834;28;20421;-65
2024/03/19 05:46:12;;;;;;;15.20;10.73;;;10.80;99.90;;;;;;5034870;28;20194;-67
2024/03/19 05:48:41;;;;;;;18.23;11.27;;;10.80;99.90;;;;;;5034291;28;20947;-67
2024/03/19 05:51:08;;;;;;;17.63;11.70;;;10.80;99.90;;;;;;5033692;28;20556;-67
2024/03/19 05:53:35;;;;;;;17.30;11.50;;;10.70;99.90;;;;;;5016212;28;20792;-67
2024/03/19 05:56:01;;;;;;;17.27;11.63;;;10.70;99.90;;;;;;5034042;28;20476;-65
2024/03/19 05:58:28;;;;;;;14.80;11.80;;;10.60;99.90;;;;;;5033682;28;20770;-65
2024/03/19 06:00:55;;;;;;;16.53;10.30;;;10.60;99.90;;;;;;5034110;28;20420;-65
2024/03/19 06:03:22;;;;;;;15.87;9.67;;;10.60;99.90;;;;;;5033659;28;20536;-66
2024/03/19 06:05:58;;;;;;;18.53;12.33;;;10.50;99.90;;;;;;5033994;28;20482;-65
2024/03/19 06:08:28;;;;;;;18.23;10.33;;;10.60;99.90;;;;;;5034014;28;20527;-66
2024/03/19 06:10:54;;;;;;;17.37;10.80;;;10.60;99.90;;;;;;5033178;28;20930;-66
2024/03/19 06:13:20;;;;;;;14.60;9.60;;;10.60;99.90;;;;;;5034300;28;21170;-66
2024/03/19 06:15:46;;;;;;;15.13;10.40;;;10.60;99.90;;;;;;5033174;28;20471;-67
2024/03/19 06:18:13;;;;;;;19.27;10.70;;;10.60;99.90;;;;;;5033875;28;20437;-65
2024/03/19 06:20:39;;;;;;;14.60;10.40;;;10.60;99.90;;;;;;5033453;28;20185;-65
2024/03/19 06:23:04;;;;;;;13.10;10.40;;;10.60;99.90;;;;;;5034103;28;20433;-66
2024/03/19 06:25:30;;;;;;;18.47;9.30;;;10.60;99.90;;;;;;5033870;28;20428;-66
2024/03/19 06:27:56;;;;;;;17.10;10.53;;;10.60;99.90;;;;;;5033277;28;20563;-65
2024/03/19 06:30:21;;;;;;;15.97;11.00;;;10.70;99.90;;;;;;5033800;28;20190;-66
2024/03/19 06:32:47;;;;;;;16.10;10.30;;;10.70;99.90;;;;;;5033607;28;20332;-66
2024/03/19 06:35:14;;;;;;;15.67;10.23;;;10.70;99.90;;;;;;5033765;28;20194;-66
2024/03/19 06:37:43;;;;;;;15.60;10.07;;;10.70;99.90;;;;;;5032211;28;20265;-65
2024/03/19 06:40:10;;;;;;;17.67;12.10;;;10.70;99.90;;;;;;5031879;28;20432;-66
2024/03/19 06:42:36;;;;;;;14.77;10.83;;;10.70;99.90;;;;;;5032425;28;20420;-66
2024/03/19 06:45:08;;;;;;;12.87;10.03;;;10.70;99.90;;;;;;5033011;28;20476;-65
2024/03/19 06:47:37;;;;;;;12.63;10.43;;;10.80;99.90;;;;;;5032457;28;20444;-65
2024/03/19 06:50:06;;;;;;;12.63;9.33;;;10.80;99.90;;;;;;5032982;28;20535;-66
2024/03/19 06:52:33;;;;;;;12.70;9.80;;;10.80;99.90;;;;;;5032236;28;20461;-66
2024/03/19 06:54:59;;;;;;;18.90;11.40;;;10.90;99.90;;;;;;5033241;28;20542;-65
2024/03/19 06:57:25;;;;;;;17.30;10.07;;;10.90;99.90;;;;;;5032417;28;20440;-66
2024/03/19 06:59:51;;;;;;;17.17;11.53;;;11.00;99.90;;;;;;5032579;28;20417;-66
2024/03/19 07:02:18;;;;;;;13.33;10.30;;;11.00;99.90;;;;;;5032435;28;21005;-66
2024/03/19 07:04:44;;;;;;;15.40;9.83;;;11.00;99.90;;;;;;5033314;28;20214;-66
2024/03/19 07:07:13;;;;;;;14.93;10.60;;;11.00;99.90;;;;;;5033124;28;20432;-66
2024/03/19 07:09:40;;;;;;;18.47;11.77;;;11.10;99.90;;;;;;5033144;28;20424;-66
2024/03/19 07:12:07;;;;;;;15.10;10.43;;;11.10;99.90;;;;;;5032074;28;20546;-66
2024/03/19 07:14:34;;;;;;;13.67;10.13;;;11.10;99.90;;;;;;5032799;28;20437;-66
2024/03/19 07:17:00;;;;;;;14.40;10.53;;;11.00;99.90;;;;;;5032499;28;20806;-66
2024/03/19 07:19:26;;;;;;;14.50;10.40;;;11.10;99.90;;;;;;5032220;28;20424;-66
2024/03/19 07:21:51;;;;;;;15.77;10.43;;;11.10;99.90;;;;;;5031385;28;20834;-67
2024/03/19 07:24:17;;;;;;;19.67;10.80;;;11.10;99.90;;;;;;5032818;28;20606;-66
2024/03/19 07:26:43;;;;;;;14.50;10.03;;;11.10;99.90;;;;;;5032824;28;20191;-66
2024/03/19 07:29:09;;;;;;;13.13;10.20;;;11.20;99.90;;;;;;5032726;28;20704;-65
2024/03/19 07:31:39;;;;;;;14.57;10.37;;;11.20;99.90;;;;;;5032544;28;20480;-66
2024/03/19 07:34:09;;;;;;;11.13;9.03;;;11.30;99.90;;;;;;5032287;28;20182;-65
2024/03/19 07:36:35;;;;;;;14.77;10.20;;;11.30;99.90;;;;;;5032096;28;20924;-67
2024/03/19 07:39:04;;;;;;;12.47;9.60;;;11.40;99.90;;;;;;5029913;28;20821;-67
2024/03/19 07:41:30;;;;;;;14.60;10.90;;;11.40;99.90;;;;;;5032119;28;20429;-66
2024/03/19 07:43:56;;;;;;;16.50;11.10;;;11.50;99.90;;;;;;5032201;28;20439;-66
2024/03/19 07:46:22;;;;;;;13.90;10.77;;;11.50;99.90;;;;;;5031501;28;20210;-66
2024/03/19 07:48:49;;;;;;;16.53;10.90;;;11.50;99.90;;;;;;5032469;28;20427;-66
2024/03/19 07:51:15;;;;;;;16.53;11.33;;;11.50;99.90;;;;;;5031919;28;20238;-67
2024/03/19 07:53:40;;;;;;;13.73;10.63;;;11.50;99.90;;;;;;5032964;28;20416;-66
2024/03/19 07:56:06;;;;;;;15.10;10.60;;;11.50;99.90;;;;;;5031119;28;20181;-65
2024/03/19 07:58:32;;;;;;;18.33;11.57;;;11.60;99.90;;;;;;5030503;28;20591;-66
2024/03/19 08:00:57;;;;;;;12.40;9.97;;;11.60;99.90;;;;;;5030919;28;20343;-66
2024/03/19 08:03:23;;;;;;;12.43;10.50;;;11.70;99.90;;;;;;5032319;28;20233;-66
2024/03/19 08:05:58;;;;;;;17.07;11.20;;;11.70;99.90;;;;;;5032323;28;20816;-66
2024/03/19 08:08:24;;;;;;;15.67;10.97;;;11.80;99.90;;;;;;5031681;28;20189;-66
2024/03/19 08:10:49;;;;;;;15.87;11.00;;;11.80;99.90;;;;;;5032343;28;20902;-66
2024/03/19 08:13:15;;;;;;;14.60;11.13;;;11.90;99.90;;;;;;5031974;28;20747;-66
2024/03/19 08:15:41;;;;;;;19.40;11.63;;;11.90;99.90;;;;;;5033476;28;20224;-67
2024/03/19 08:18:08;;;;;;;15.07;10.97;;;11.90;99.90;;;;;;5029996;28;20542;-67
2024/03/19 08:20:37;;;;;;;16.23;11.43;;;11.90;99.90;;;;;;5032062;28;20209;-67
2024/03/19 08:23:04;;;;;;;20.93;11.80;;;11.90;99.90;;;;;;5031194;28;20440;-66
2024/03/19 08:25:31;;;;;;;19.13;11.50;;;11.90;99.90;;;;;;5032317;28;21184;-65
2024/03/19 08:27:57;;;;;;;16.17;11.13;;;12.00;99.90;;;;;;5031351;28;20435;-65
2024/03/19 08:30:23;;;;;;;17.13;12.77;;;12.10;99.90;;;;;;5031131;28;20441;-66
2024/03/19 08:32:49;;;;;;;15.97;11.23;;;12.10;99.90;;;;;;5032520;28;20218;-66
2024/03/19 08:35:16;;;;;;;14.97;11.50;;;12.20;99.90;;;;;;5031659;28;20436;-66
2024/03/19 08:37:42;;;;;;;21.90;13.53;;;12.30;99.90;;;;;;5031603;28;20425;-66
2024/03/19 08:40:09;;;;;;;22.47;12.57;;;12.40;99.90;;;;;;5028868;28;20933;-67
2024/03/19 08:42:35;;;;;;;20.50;12.00;;;12.50;99.90;;;;;;5031532;28;20528;-67
2024/03/19 08:45:05;;;;;;;25.87;13.77;;;12.70;99.90;;;;;;5031289;28;20428;-67
2024/03/19 08:47:31;;;;;;;19.23;11.83;;;12.80;99.90;;;;;;5031022;28;20506;-66
2024/03/19 08:49:57;;;;;;;23.00;13.97;;;12.80;99.90;;;;;;5032262;28;20939;-66
2024/03/19 08:52:23;;;;;;;19.33;12.93;;;12.90;99.90;;;;;;5030277;28;20465;-66
2024/03/19 08:54:49;;;;;;;17.43;11.87;;;12.90;99.90;;;;;;5032621;28;20458;-66
2024/03/19 08:57:15;;;;;;;17.90;11.03;;;12.90;99.90;;;;;;5031385;28;20400;-67
2024/03/19 08:59:41;;;;;;;19.27;10.93;;;13.00;99.90;;;;;;5031703;28;20567;-67
2024/03/19 09:02:07;;;;;;;17.37;10.70;;;13.00;99.90;;;;;;5030576;28;20433;-66
2024/03/19 09:04:37;;;;;;;17.50;11.47;;;13.00;99.90;;;;;;5031296;28;20191;-67
2024/03/19 09:07:04;;;;;;;21.63;10.87;;;13.00;99.90;;;;;;5030655;28;20457;-67
2024/03/19 09:09:29;;;;;;;18.27;11.43;;;13.00;99.90;;;;;;5033733;28;20955;-67
2024/03/19 09:11:55;;;;;;;19.23;11.30;;;13.00;99.90;;;;;;5034927;28;20469;-67
2024/03/19 09:14:21;;;;;;;19.10;11.60;;;13.10;99.90;;;;;;5034408;28;20427;-66
2024/03/19 09:16:46;;;;;;;13.40;10.00;;;13.10;99.90;;;;;;5033877;28;20190;-66
2024/03/19 09:19:12;;;;;;;17.07;10.63;;;13.30;99.90;;;;;;5034569;28;20269;-67
2024/03/19 09:21:38;;;;;;;13.73;8.97;;;13.40;99.90;;;;;;5035093;28;20594;-66
2024/03/19 09:24:05;;;;;;;9.97;7.73;;;13.50;99.90;;;;;;5033829;28;20186;-66
2024/03/19 09:26:31;;;;;;;14.10;9.03;;;13.50;99.90;;;;;;5034314;28;21188;-66
2024/03/19 09:28:57;;;;;;;13.90;8.80;;;13.60;99.90;;;;;;5035077;28;20428;-66
2024/03/19 09:31:23;;;;;;;10.50;7.80;;;13.70;99.90;;;;;;5032255;28;20217;-66
2024/03/19 09:33:48;;;;;;;10.50;6.47;;;13.60;99.90;;;;;;5034996;28;20788;-66
2024/03/19 09:36:14;;;;;;;10.40;6.07;;;13.70;99.90;;;;;;5034368;28;20487;-67
2024/03/19 09:38:42;;;;;;;10.33;5.77;;;13.60;99.90;;;;;;5033794;28;20185;-66
2024/03/19 09:41:10;;;;;;;11.00;5.93;;;13.70;99.90;;;;;;5032849;28;20440;-67
2024/03/19 09:43:36;;;;;;;7.07;4.53;;;13.70;99.90;;;;;;5034812;28;20535;-66
2024/03/19 09:46:06;;;;;;;6.90;4.60;;;13.80;99.90;;;;;;5035066;28;20566;-66
2024/03/19 09:48:31;;;;;;;11.60;5.17;;;13.80;99.90;;;;;;5033093;28;20435;-66
2024/03/19 09:50:58;;;;;;;9.50;5.30;;;13.80;99.90;;;;;;5034877;28;20424;-66
2024/03/19 09:53:26;;;;;;;8.10;5.10;;;13.80;99.90;;;;;;5033416;28;20232;-66
2024/03/19 09:55:53;;;;;;;11.50;5.70;;;13.90;99.90;;;;;;5035291;28;20421;-66
2024/03/19 09:58:23;;;;;;;9.17;5.37;;;13.90;99.90;;;;;;5032368;28;20515;-66
2024/03/19 10:00:51;;;;;;;8.30;4.40;;;14.00;99.90;;;;;;5033405;28;20420;-66
2024/03/19 10:03:17;;;;;;;7.50;4.03;;;14.10;99.90;;;;;;5033816;28;20490;-65
2024/03/19 10:05:43;;;;;;;7.77;4.13;;;14.30;99.90;;;;;;5035326;28;20417;-65
2024/03/19 10:08:14;;;;;;;10.93;4.60;;;14.40;99.90;;;;;;5033718;28;20433;-65
2024/03/19 10:10:40;;;;;;;11.70;6.70;;;14.50;99.90;;;;;;5034036;28;20972;-65
2024/03/19 10:13:11;;;;;;;8.33;6.37;;;14.60;99.90;;;;;;5033701;28;21144;-66
2024/03/19 10:15:37;;;;;;;11.70;7.27;;;14.70;99.90;;;;;;5049031;28;20491;-66
2024/03/19 10:18:06;;;;;;;14.57;7.60;;;14.80;99.90;;;;;;5034528;28;20428;-65
2024/03/19 10:20:32;;;;;;;11.67;7.60;;;14.90;99.90;;;;;;5032370;28;20190;-66
2024/03/19 10:23:01;;;;;;;13.17;8.80;;;15.00;99.90;;;;;;5034694;28;20439;-66
2024/03/19 10:25:27;;;;;;;15.17;7.93;;;15.00;99.90;;;;;;5032566;28;20434;-66
2024/03/19 10:27:53;;;;;;;11.63;7.83;;;15.00;99.90;;;;;;5034562;28;20455;-67
2024/03/19 10:30:21;;;;;;;16.83;9.10;;;15.10;99.90;;;;;;5032288;28;20957;-66
2024/03/19 10:32:50;;;;;;;11.00;7.60;;;15.20;99.90;;;;;;5034712;28;20214;-65
2024/03/19 10:35:22;;;;;;;13.70;8.33;;;15.20;99.90;;;;;;5032738;28;20437;-66
2024/03/19 10:37:50;;;;;;;9.20;6.40;;;15.00;99.90;;;;;;5033858;28;20426;-66
2024/03/19 10:40:18;;;;;;;13.47;6.40;;;15.00;99.90;;;;;;5031345;28;20490;-66
2024/03/19 10:42:45;;;;;;;12.50;7.30;;;15.00;99.90;;;;;;5033573;28;20421;-67
2024/03/19 10:45:31;;;;;;;11.80;6.93;;;15.00;99.90;;;;;;5032438;28;20494;-66
2024/03/19 10:47:57;;;;;;;13.47;7.23;;;15.10;99.90;;;;;;5033450;28;20447;-67
2024/03/19 10:50:23;;;;;;;10.57;6.10;;;15.00;99.90;;;;;;5033341;28;20460;-66
2024/03/19 10:52:52;;;;;;;7.53;5.40;;;15.00;99.90;;;;;;5033411;28;20506;-67
2024/03/19 10:55:19;;;;;;;9.77;4.70;;;15.20;99.90;;;;;;5033002;28;20464;-66
2024/03/19 10:57:46;;;;;;;7.13;4.70;;;15.40;99.90;;;;;;5033010;28;20524;-66
2024/03/19 11:00:26;;;;;;;6.60;4.53;;;15.50;99.90;;;;;;5033518;28;20498;-67
2024/03/19 11:03:01;;;;;;;8.90;4.20;;;15.60;99.90;;;;;;5034255;28;20432;-67
2024/03/19 11:05:27;;;;;;;8.53;4.07;;;15.40;99.90;;;;;;5033427;28;21221;-65
2024/03/19 11:07:56;;;;;;;9.00;4.20;;;15.30;99.90;;;;;;5032275;28;20946;-66
2024/03/19 11:10:30;;;;;;;9.17;4.90;;;15.30;99.90;;;;;;5031979;28;20520;-66
2024/03/19 11:12:57;;;;;;;6.00;4.00;;;15.30;99.90;;;;;;5031821;28;20814;-66
2024/03/19 11:15:23;;;;;;;5.80;3.87;;;15.40;99.90;;;;;;5031273;28;20488;-66
2024/03/19 11:17:49;;;;;;;3.63;2.73;;;15.50;99.90;;;;;;5031075;28;20417;-67
2024/03/19 11:20:18;;;;;;;4.20;2.33;;;15.40;99.90;;;;;;5032012;28;21260;-67
2024/03/19 11:22:50;;;;;;;7.73;3.30;;;15.50;99.90;;;;;;5029699;28;20833;-67
2024/03/19 11:25:16;;;;;;;5.67;2.40;;;15.70;99.90;;;;;;5030927;28;20428;-66
2024/03/19 11:27:49;;;;;;;4.00;3.00;;;15.80;99.90;;;;;;5031026;28;20856;-67
2024/03/19 11:30:16;;;;;;;6.30;3.40;;;16.00;99.90;;;;;;5030748;28;20435;-67
2024/03/19 11:32:43;;;;;;;7.40;3.00;;;16.10;99.90;;;;;;5030475;28;20527;-66
2024/03/19 11:35:22;;;;;;;4.90;2.90;;;15.90;99.90;;;;;;5032210;28;20428;-67
2024/03/19 11:37:51;;;;;;;7.80;2.73;;;16.10;99.90;;;;;;5031085;28;20433;-67
2024/03/19 11:40:18;;;;;;;21.77;3.63;;;16.20;99.90;;;;;;5029533;28;20942;-66
2024/03/19 11:42:46;;;;;;;27.93;4.93;;;16.20;99.90;;;;;;5031588;28;20424;-67
2024/03/19 11:45:17;;;;;;;6.10;3.10;;;16.30;99.90;;;;;;5031730;28;20443;-67
2024/03/19 11:47:46;;;;;;;8.17;2.60;;;16.30;99.90;;;;;;5030574;28;20450;-66
2024/03/19 11:50:17;;;;;;;8.23;3.00;;;16.30;99.90;;;;;;5031831;28;20429;-66
2024/03/19 11:52:45;;;;;;;3.43;2.60;;;16.30;99.90;;;;;;5031074;28;20480;-67
2024/03/19 11:55:11;;;;;;;4.17;2.53;;;16.30;99.90;;;;;;5031385;28;20531;-67
2024/03/19 11:57:37;;;;;;;7.70;2.80;;;16.20;99.90;;;;;;5030034;28;20519;-66
2024/03/19 12:00:10;;;;;;;5.13;3.03;;;16.20;99.90;;;;;;5031486;28;20564;-67
2024/03/19 12:02:36;;;;;;;6.30;2.87;;;16.30;99.90;;;;;;5029726;28;20460;-67
2024/03/19 12:05:02;;;;;;;4.10;2.67;;;16.50;99.90;;;;;;5031502;28;20448;-66
2024/03/19 12:07:29;;;;;;;6.70;2.53;;;16.60;99.90;;;;;;5030545;28;20432;-67
2024/03/19 12:09:55;;;;;;;4.17;2.60;;;16.70;99.90;;;;;;5030172;28;20969;-67
2024/03/19 12:12:21;;;;;;;4.60;2.33;;;16.80;99.90;;;;;;5030853;28;20602;-67
2024/03/19 12:14:47;;;;;;;5.03;2.20;;;16.70;99.90;;;;;;5030700;28;20428;-66
2024/03/19 12:17:14;;;;;;;2.50;1.83;;;16.70;99.90;;;;;;5031231;28;20452;-68
2024/03/19 12:19:41;;;;;;;6.80;2.10;;;16.80;99.90;;;;;;5030054;28;20555;-67
2024/03/19 12:22:15;;;;;;;4.03;1.83;;;16.60;99.90;;;;;;5030899;28;20424;-67
2024/03/19 12:24:44;;;;;;;5.40;1.73;;;16.60;99.90;;;;;;5030527;28;20433;-67
2024/03/19 12:27:09;;;;;;;10.87;2.23;;;16.50;99.90;;;;;;5031484;28;20443;-67
2024/03/19 12:29:35;;;;;;;2.60;1.77;;;16.60;99.90;;;;;;5029304;28;20428;-67